ENSD/SDN METAR and TAF weather

Enter ICAO airport designator
Station Type Date Time Source
ENSD METAR 2022/11/30 17:20 UTC NOAA

ENSD 301720Z 15004KT 9999 FEW011 SCT040 BKN062 05/01 Q1032 RMK WIND RWY26 VRB03KT WIND 1140FT 07006KT


Station Type Date Time Source
ENSD Decoded METAR 2022/11/30 17:20 UTC NOAA

Sandane / Anda, Norway (ENSD) 61-50N 006-07E 60M
Nov 30, 2022 - 12:20 PM EST / 2022.11.30 1720 UTC
Wind: from the SSE (150 degrees) at 5 MPH (4 KT):0
Visibility: greater than 7 mile(s):0
Sky conditions: mostly cloudy
Temperature: 41 F (5 C)
Dew Point: 33 F (1 C)
Relative Humidity: 75%
Pressure (altimeter): 30.47 in. Hg (1032 hPa)
ob: ENSD 301720Z 15004KT 9999 FEW011 SCT040 BKN062 05/01 Q1032 RMK WIND RWY26 VRB03KT WIND 1140FT 07006KT
cycle: 17

Station Type Date Time Source
ENSD TAF UTC NOAA

Error!

Example: see airport list